Аэропорт
Звартноц (UDYZ)

 UDYZ / EVN
ЗЦ Ростов-на-Дону
Ереван (UDDD)
Ереван (UDDD)
 40.14730, 44.39590  / 2838 ft

 UDYZ 132312Z 1400/1424 VRB04KT 6000 FEW040 TEMPO 1400/1403 1000 BR TEMPO 1403/1406 0200 FZFG VV001
Zvartnots AIP (Eurocontrol 2018), Zvartnots AIP (Eurocontrol 2018, no tables)
Название сценария Тип сценария Flight Simulator 9 Flight Simulator X Prepar3D v2 Prepar3D v3 Prepar3D v4 xPlane
Mega Scenery Zvartnots - Armenia 2008 бесплатный
Mega Zvartnots UDYZ [FSX] - v.2 бесплатный
UDYZ Zvartnots (Yerevan) бесплатный

Международный аэропорт Звартно́ц (арм. Զվարթնոց Միջազգային Օդանավակայան; IATA: EVN, ICAO: UDYZ) — международный аэропорт Еревана, столицы Армении. Расположен на западе города на территории района Малатия-Себастия, недалеко от города Звартноц, 12 км на запад от Еревана. Аэропорт Звартноц является главным международным транспортным узлом Армении и самым загруженным аэропортом страны.



2018 © VATRUS division